Current Conditions
Mostly Cloudy
Conditions



Pressure
1009.92 (mb) - 29.82 (inHG)
Visibility

6.2 (miles) - 10.0 (km)
   Temperature
18  °C
Temperature
12  °C
Dewpoint
68  %
 Humidity
   Wind Speed
13  mph
11  kts
21  km/h
5.8  m/s
   Wind Direction
N
45°
E
90°
135°
S
180°
225°
W
270°
315°
 270°

Due West
   Airport Data
EGGD
Bristol Airport
Metar :EGGD 221620Z AUTO 27011KT 9999 BKN049 18/12 Q1010
Sun 22nd May 17:20 pm
   Raw Metar Info
Raw METAR is the most common format in the world for the transmission of observational weather data. It is highly standardized through the International Civil Aviation Organization (ICAO), which allows it to be understood throughout most of the world.
   API Info
Data Provided by
https://www.checkwx.com/weather/EGGD

Aviation Weather providing METAR, TAF, AIRMET, SIGMET and OUTLOOK Weather Reports
   © Info
CSS/SVG/PHP scripts were developed by weather34.com for use in the weather34 template © 2015-2022

Guide Info provided by Metar-Wikipedia